createdAt,value
2023-04-30T00:00:10.459Z,99.90
2023-04-30T00:02:46.245Z,99.90
2023-04-30T00:05:13.481Z,99.90
2023-04-30T00:07:40.170Z,99.90
2023-04-30T00:10:07.434Z,99.90
2023-04-30T00:12:34.156Z,99.90
2023-04-30T00:15:01.099Z,99.90
2023-04-30T00:17:27.879Z,99.90
2023-04-30T00:19:54.859Z,99.90
2023-04-30T00:22:21.812Z,99.90
2023-04-30T00:24:48.531Z,99.90
2023-04-30T00:27:15.290Z,99.90
2023-04-30T00:29:42.047Z,99.90
2023-04-30T00:32:10.263Z,99.90
2023-04-30T00:34:38.452Z,99.90
2023-04-30T00:37:05.421Z,99.90
2023-04-30T00:39:33.320Z,99.90
2023-04-30T00:42:00.120Z,99.90
2023-04-30T00:44:28.655Z,99.90
2023-04-30T00:46:56.328Z,99.90
2023-04-30T00:49:23.532Z,99.90
2023-04-30T00:51:52.064Z,99.90
2023-04-30T00:54:20.909Z,99.90
2023-04-30T00:56:47.744Z,99.90
2023-04-30T00:59:14.831Z,99.90
2023-04-30T01:01:41.633Z,99.90
2023-04-30T01:04:08.444Z,99.90
2023-04-30T01:06:35.172Z,99.90
2023-04-30T01:09:01.986Z,99.90
2023-04-30T01:11:34.832Z,99.90
2023-04-30T01:14:13.510Z,99.90
2023-04-30T01:16:48.218Z,99.90
2023-04-30T01:19:29.058Z,99.90
2023-04-30T01:21:59.599Z,99.90
2023-04-30T01:24:48.190Z,99.90
2023-04-30T01:28:07.126Z,99.90
2023-04-30T01:30:35.429Z,99.90
2023-04-30T01:33:03.415Z,99.90
2023-04-30T01:35:54.802Z,99.90
2023-04-30T01:38:27.045Z,99.90
2023-04-30T01:40:56.530Z,99.90
2023-04-30T01:43:38.752Z,99.90
2023-04-30T01:46:21.099Z,99.90
2023-04-30T01:49:05.385Z,99.90
2023-04-30T01:51:46.902Z,99.90
2023-04-30T01:54:29.124Z,99.90
2023-04-30T01:57:29.355Z,99.90
2023-04-30T01:59:56.591Z,99.90
2023-04-30T02:02:23.763Z,99.90
2023-04-30T02:04:50.540Z,99.90
2023-04-30T02:07:28.916Z,99.90
2023-04-30T02:09:55.939Z,99.90
2023-04-30T02:12:22.790Z,99.90
2023-04-30T02:14:49.498Z,99.90
2023-04-30T02:17:16.190Z,99.90
2023-04-30T02:19:42.872Z,99.90
2023-04-30T02:22:09.563Z,99.90
2023-04-30T02:24:37.315Z,99.90
2023-04-30T02:27:05.091Z,99.90
2023-04-30T02:29:32.351Z,99.90
2023-04-30T02:32:02.645Z,99.90
2023-04-30T02:34:34.766Z,99.90
2023-04-30T02:37:01.461Z,99.90
2023-04-30T02:39:28.224Z,99.90
2023-04-30T02:41:54.948Z,99.90
2023-04-30T02:44:21.708Z,99.90
2023-04-30T02:46:48.347Z,99.90
2023-04-30T02:49:15.014Z,99.90
2023-04-30T02:51:43.354Z,99.90
2023-04-30T02:54:10.289Z,99.90
2023-04-30T02:56:38.151Z,99.90
2023-04-30T02:59:04.981Z,99.90
2023-04-30T03:01:34.947Z,99.90
2023-04-30T03:04:01.676Z,99.90
2023-04-30T03:06:28.430Z,99.90
2023-04-30T03:08:55.173Z,99.90
2023-04-30T03:11:22.104Z,99.90
2023-04-30T03:13:49.253Z,99.90
2023-04-30T03:16:16.082Z,99.90
2023-04-30T03:18:42.821Z,99.90
2023-04-30T03:21:09.553Z,99.90
2023-04-30T03:23:36.470Z,99.90
2023-04-30T03:26:03.388Z,99.90
2023-04-30T03:28:30.279Z,99.90
2023-04-30T03:30:56.974Z,99.90
2023-04-30T03:33:24.043Z,99.90
2023-04-30T03:35:51.023Z,99.90
2023-04-30T03:38:18.888Z,99.90
2023-04-30T03:40:45.582Z,99.90
2023-04-30T03:43:13.672Z,99.90
2023-04-30T03:45:40.382Z,99.90
2023-04-30T03:48:07.159Z,99.90
2023-04-30T03:50:33.880Z,99.90
2023-04-30T03:53:00.643Z,99.90
2023-04-30T03:55:27.436Z,99.90
2023-04-30T03:57:54.383Z,99.90
2023-04-30T04:00:21.173Z,99.90
2023-04-30T04:02:48.425Z,99.90
2023-04-30T04:05:15.272Z,99.90
2023-04-30T04:07:42.007Z,99.90
2023-04-30T04:10:10.233Z,99.90
2023-04-30T04:12:36.963Z,99.90
2023-04-30T04:15:05.420Z,99.90
2023-04-30T04:17:33.690Z,99.90
2023-04-30T04:20:01.542Z,99.90
2023-04-30T04:22:28.211Z,99.90
2023-04-30T04:24:54.901Z,99.90
2023-04-30T04:27:21.564Z,99.90
2023-04-30T04:29:48.226Z,99.90
2023-04-30T04:32:14.992Z,99.90
2023-04-30T04:34:41.782Z,99.90
2023-04-30T04:37:08.482Z,99.90
2023-04-30T04:39:35.266Z,99.90
2023-04-30T04:42:02.002Z,99.90
2023-04-30T04:44:28.686Z,99.90
2023-04-30T04:46:55.513Z,99.90
2023-04-30T04:49:22.354Z,99.90
2023-04-30T04:51:49.033Z,99.90
2023-04-30T04:54:17.072Z,99.90
2023-04-30T04:56:43.765Z,99.90
2023-04-30T04:59:20.840Z,99.90
2023-04-30T05:01:49.138Z,99.90
2023-04-30T05:04:17.889Z,99.90
2023-04-30T05:06:44.597Z,99.90
2023-04-30T05:09:11.362Z,99.90
2023-04-30T05:11:38.453Z,99.90
2023-04-30T05:14:05.115Z,99.90
2023-04-30T05:16:31.875Z,99.90
2023-04-30T05:18:58.582Z,99.90
2023-04-30T05:21:25.228Z,99.90
2023-04-30T05:23:51.917Z,99.90
2023-04-30T05:26:19.277Z,99.90
2023-04-30T05:28:47.069Z,99.90
2023-04-30T05:31:13.832Z,99.90
2023-04-30T05:33:41.942Z,99.90
2023-04-30T05:36:08.710Z,99.90
2023-04-30T05:38:36.790Z,99.90
2023-04-30T05:41:03.622Z,99.90
2023-04-30T05:43:31.327Z,99.90
2023-04-30T05:45:58.294Z,99.90
2023-04-30T05:48:29.938Z,99.90
2023-04-30T05:51:00.451Z,99.90
2023-04-30T05:53:36.810Z,99.90
2023-04-30T05:56:06.378Z,99.90
2023-04-30T05:58:35.150Z,99.90
2023-04-30T06:01:02.245Z,99.90
2023-04-30T06:03:28.995Z,99.90
2023-04-30T06:05:55.763Z,99.90
2023-04-30T06:08:22.659Z,99.90
2023-04-30T06:10:50.708Z,99.90
2023-04-30T06:13:18.033Z,99.90
2023-04-30T06:15:45.052Z,99.90
2023-04-30T06:18:13.052Z,99.90
2023-04-30T06:20:40.444Z,99.90
2023-04-30T06:23:07.216Z,99.90
2023-04-30T06:25:34.135Z,99.90
2023-04-30T06:28:00.814Z,99.90
2023-04-30T06:30:27.561Z,99.90
2023-04-30T06:32:54.666Z,99.90
2023-04-30T06:35:22.013Z,99.90
2023-04-30T06:37:49.390Z,99.90
2023-04-30T06:40:19.654Z,99.90
2023-04-30T06:42:49.046Z,99.90
2023-04-30T06:45:17.020Z,99.90
2023-04-30T06:47:43.706Z,99.90
2023-04-30T06:50:10.674Z,99.90
2023-04-30T06:52:37.455Z,99.90
2023-04-30T06:55:04.318Z,99.90
2023-04-30T06:57:31.185Z,99.90
2023-04-30T06:59:58.246Z,99.90
2023-04-30T07:02:25.320Z,99.90
2023-04-30T07:04:52.181Z,99.90
2023-04-30T07:07:23.209Z,99.90
2023-04-30T07:09:51.589Z,99.90
2023-04-30T07:12:20.803Z,99.90
2023-04-30T07:14:48.556Z,99.90
2023-04-30T07:17:17.028Z,99.90
2023-04-30T07:19:43.768Z,99.90
2023-04-30T07:22:11.753Z,99.90
2023-04-30T07:24:38.479Z,99.90
2023-04-30T07:27:05.302Z,99.90
2023-04-30T07:29:35.598Z,99.90
2023-04-30T07:32:04.759Z,99.90
2023-04-30T07:34:31.445Z,99.90
2023-04-30T07:36:58.169Z,99.90
2023-04-30T07:39:24.884Z,99.90
2023-04-30T07:41:51.514Z,99.90
2023-04-30T07:44:18.182Z,99.90
2023-04-30T07:46:44.932Z,99.90
2023-04-30T07:49:11.962Z,99.90
2023-04-30T07:51:38.708Z,99.90
2023-04-30T07:54:05.457Z,99.90
2023-04-30T07:56:32.253Z,99.90
2023-04-30T07:58:58.988Z,99.90
2023-04-30T08:01:25.776Z,99.90
2023-04-30T08:03:52.782Z,99.90
2023-04-30T08:06:21.320Z,99.90
2023-04-30T08:08:50.444Z,99.90
2023-04-30T08:11:18.278Z,99.90
2023-04-30T08:13:51.462Z,99.90
2023-04-30T08:16:19.642Z,99.90
2023-04-30T08:18:46.825Z,99.90
2023-04-30T08:21:14.012Z,99.90
2023-04-30T08:23:40.755Z,99.90
2023-04-30T08:26:07.427Z,99.90
2023-04-30T08:28:34.085Z,99.90
2023-04-30T08:31:01.159Z,99.90
2023-04-30T08:33:27.877Z,99.90
2023-04-30T08:35:54.820Z,99.90
2023-04-30T08:38:21.496Z,99.90
2023-04-30T08:41:15.498Z,99.90
2023-04-30T08:43:43.396Z,99.90
2023-04-30T08:46:12.123Z,99.90
2023-04-30T08:48:40.808Z,99.90
2023-04-30T08:51:07.689Z,99.90
2023-04-30T08:53:37.574Z,99.90
2023-04-30T08:56:05.122Z,99.90
2023-04-30T08:58:32.085Z,99.90
2023-04-30T09:01:01.527Z,99.90
2023-04-30T09:03:39.925Z,99.90
2023-04-30T09:06:07.818Z,99.90
2023-04-30T09:08:43.702Z,99.90
2023-04-30T09:11:21.086Z,99.90
2023-04-30T09:13:50.914Z,99.90
2023-04-30T09:16:19.050Z,99.90
2023-04-30T09:18:48.776Z,99.90
2023-04-30T09:21:16.887Z,99.90
2023-04-30T09:23:56.677Z,99.90
2023-04-30T09:26:28.046Z,99.90
2023-04-30T09:28:58.885Z,99.00
2023-04-30T09:31:26.787Z,97.90
2023-04-30T09:33:53.775Z,97.10
2023-04-30T09:36:21.663Z,96.20
2023-04-30T09:38:49.268Z,96.70
2023-04-30T09:41:28.578Z,97.10
2023-04-30T09:43:57.306Z,98.00
2023-04-30T09:46:34.820Z,99.20
2023-04-30T09:49:06.538Z,99.10
2023-04-30T09:51:33.276Z,99.50
2023-04-30T09:54:03.681Z,99.10
2023-04-30T09:56:36.955Z,98.70
2023-04-30T09:59:07.617Z,95.20
2023-04-30T10:01:36.103Z,94.30
2023-04-30T10:04:05.149Z,94.20
2023-04-30T10:06:32.366Z,92.70
2023-04-30T10:09:01.830Z,91.10
2023-04-30T10:11:33.084Z,89.20
2023-04-30T10:14:12.947Z,90.00
2023-04-30T10:16:57.342Z,86.50
2023-04-30T10:19:26.334Z,88.80
2023-04-30T10:21:53.276Z,87.30
2023-04-30T10:24:21.038Z,86.30
2023-04-30T10:26:49.148Z,86.40
2023-04-30T10:29:18.029Z,86.30
2023-04-30T10:31:51.401Z,85.10
2023-04-30T10:34:36.903Z,86.30
2023-04-30T10:37:18.891Z,87.90
2023-04-30T10:39:46.346Z,83.50
2023-04-30T10:42:13.154Z,85.30
2023-04-30T10:44:40.276Z,85.20
2023-04-30T10:47:08.244Z,86.60
2023-04-30T10:49:35.181Z,85.20
2023-04-30T10:52:03.364Z,84.60
2023-04-30T10:54:32.068Z,83.60
2023-04-30T10:57:16.215Z,85.70
2023-04-30T10:59:44.052Z,84.30
2023-04-30T11:02:12.712Z,84.10
2023-04-30T11:05:15.770Z,84.60
2023-04-30T11:07:56.206Z,84.80
2023-04-30T11:10:24.441Z,85.00
2023-04-30T11:12:52.865Z,85.10
2023-04-30T11:15:27.548Z,81.90
2023-04-30T11:17:58.678Z,82.40
2023-04-30T11:20:26.256Z,83.40
2023-04-30T11:23:25.048Z,83.40
2023-04-30T11:25:56.077Z,81.70
2023-04-30T11:28:27.381Z,83.70
2023-04-30T11:30:57.035Z,84.10
2023-04-30T11:33:25.987Z,83.00
2023-04-30T11:35:53.581Z,82.20
2023-04-30T11:38:25.732Z,81.60
2023-04-30T11:40:53.658Z,81.40
2023-04-30T11:43:32.250Z,78.10
2023-04-30T11:46:06.541Z,78.80
2023-04-30T11:48:39.448Z,79.50
2023-04-30T11:51:20.026Z,78.90
2023-04-30T11:53:49.705Z,76.70
2023-04-30T11:56:24.132Z,76.80
2023-04-30T11:58:53.242Z,76.20
2023-04-30T12:01:20.878Z,75.40
2023-04-30T12:03:51.010Z,75.40
2023-04-30T12:06:26.141Z,73.50
2023-04-30T12:09:03.485Z,74.40
2023-04-30T12:11:32.209Z,74.30
2023-04-30T12:14:03.066Z,73.40
2023-04-30T12:16:45.218Z,73.90
2023-04-30T12:19:13.326Z,72.20
2023-04-30T12:21:43.413Z,71.80
2023-04-30T12:24:12.708Z,71.90
2023-04-30T12:26:41.140Z,70.50
2023-04-30T12:29:18.365Z,70.00
2023-04-30T12:31:49.533Z,70.20
2023-04-30T12:34:18.262Z,68.60
2023-04-30T12:36:45.174Z,68.50
2023-04-30T12:39:13.816Z,66.80
2023-04-30T12:41:43.198Z,68.40
2023-04-30T12:44:26.561Z,67.00
2023-04-30T12:47:06.764Z,66.00
2023-04-30T12:49:37.847Z,64.80
2023-04-30T12:52:13.455Z,65.40
2023-04-30T12:54:40.530Z,66.10
2023-04-30T12:57:10.418Z,64.50
2023-04-30T12:59:54.253Z,63.80
2023-04-30T13:02:24.530Z,62.30
2023-04-30T13:04:51.445Z,62.60
2023-04-30T13:07:18.151Z,61.70
2023-04-30T13:09:53.406Z,60.80
2023-04-30T13:12:21.767Z,60.40
2023-04-30T13:14:49.818Z,60.10
2023-04-30T13:17:16.552Z,60.80
2023-04-30T13:20:07.971Z,59.70
2023-04-30T13:22:35.186Z,57.90
2023-04-30T13:25:03.151Z,59.30
2023-04-30T13:27:29.883Z,58.50
2023-04-30T13:29:59.748Z,57.90
2023-04-30T13:32:26.418Z,58.10
2023-04-30T13:34:53.145Z,58.60
2023-04-30T13:37:19.794Z,57.80
2023-04-30T13:39:46.613Z,57.20
2023-04-30T13:42:14.462Z,56.80
2023-04-30T13:44:41.195Z,54.90
2023-04-30T13:47:08.045Z,55.30
2023-04-30T13:49:34.743Z,55.00
2023-04-30T13:52:01.655Z,55.10
2023-04-30T13:54:28.378Z,55.40
2023-04-30T13:56:55.136Z,55.60
2023-04-30T13:59:21.866Z,54.30
2023-04-30T14:01:49.596Z,53.60
2023-04-30T14:04:16.427Z,53.70
2023-04-30T14:06:46.654Z,52.60
2023-04-30T14:09:14.869Z,52.60
2023-04-30T14:11:43.884Z,52.70
2023-04-30T14:14:11.064Z,53.00
2023-04-30T14:16:37.880Z,52.70
2023-04-30T14:19:04.688Z,51.20
2023-04-30T14:21:31.439Z,51.90
2023-04-30T14:23:58.174Z,52.50
2023-04-30T14:26:24.981Z,52.00
2023-04-30T14:28:51.732Z,50.80
2023-04-30T14:31:18.451Z,51.00
2023-04-30T14:33:45.306Z,52.10
2023-04-30T14:36:12.046Z,50.50
2023-04-30T14:38:40.000Z,51.00
2023-04-30T14:41:06.730Z,49.80
2023-04-30T14:43:35.153Z,48.90
2023-04-30T14:46:05.034Z,49.20
2023-04-30T14:48:31.830Z,49.50
2023-04-30T14:51:16.385Z,49.20
2023-04-30T14:53:45.710Z,49.80
2023-04-30T14:56:12.504Z,48.50
2023-04-30T14:58:39.272Z,49.00
2023-04-30T15:01:06.257Z,49.10
2023-04-30T15:03:33.247Z,47.70
2023-04-30T15:06:00.526Z,47.20
2023-04-30T15:08:29.959Z,46.50
2023-04-30T15:10:56.715Z,48.00
2023-04-30T15:13:23.507Z,48.30
2023-04-30T15:15:50.536Z,47.50
2023-04-30T15:18:18.702Z,47.00
2023-04-30T15:20:46.836Z,47.20
2023-04-30T15:23:14.341Z,47.10
2023-04-30T15:25:42.591Z,47.80
2023-04-30T15:28:09.639Z,46.10
2023-04-30T15:30:37.766Z,46.60
2023-04-30T15:33:04.567Z,46.80
2023-04-30T15:35:31.552Z,48.40
2023-04-30T15:37:58.396Z,47.40
2023-04-30T15:40:25.260Z,46.80
2023-04-30T15:42:52.063Z,46.50
2023-04-30T15:45:18.942Z,46.00
2023-04-30T15:47:49.000Z,45.90
2023-04-30T15:50:18.660Z,45.90
2023-04-30T15:52:45.740Z,45.90
2023-04-30T15:55:12.784Z,45.30
2023-04-30T15:57:39.565Z,45.00
2023-04-30T16:00:07.189Z,45.40
2023-04-30T16:02:35.493Z,45.00
2023-04-30T16:05:02.507Z,45.00
2023-04-30T16:07:31.380Z,45.20
2023-04-30T16:09:59.927Z,45.00
2023-04-30T16:12:28.169Z,45.10
2023-04-30T16:14:57.573Z,44.70
2023-04-30T16:17:28.892Z,44.60
2023-04-30T16:19:56.829Z,44.60
2023-04-30T16:22:25.863Z,45.20
2023-04-30T16:25:00.190Z,45.20
2023-04-30T16:27:29.341Z,44.80
2023-04-30T16:29:59.736Z,44.50
2023-04-30T16:32:28.675Z,44.30
2023-04-30T16:34:55.349Z,44.50
2023-04-30T16:37:22.109Z,44.80
2023-04-30T16:39:48.811Z,44.50
2023-04-30T16:42:17.847Z,44.00
2023-04-30T16:44:44.631Z,44.40
2023-04-30T16:47:11.470Z,44.60
2023-04-30T16:49:40.477Z,44.90
2023-04-30T16:52:07.193Z,44.80
2023-04-30T16:54:34.081Z,44.60
2023-04-30T16:57:02.410Z,44.90
2023-04-30T16:59:29.412Z,44.30
2023-04-30T17:01:57.608Z,44.70
2023-04-30T17:04:25.248Z,44.90
2023-04-30T17:06:52.040Z,45.40
2023-04-30T17:09:18.824Z,45.60
2023-04-30T17:11:46.152Z,45.10
2023-04-30T17:14:12.982Z,44.70
2023-04-30T17:16:39.704Z,45.00
2023-04-30T17:19:06.566Z,44.70
2023-04-30T17:21:33.860Z,45.00
2023-04-30T17:24:00.812Z,45.00
2023-04-30T17:26:27.557Z,44.70
2023-04-30T17:28:58.341Z,45.30
2023-04-30T17:31:27.421Z,46.00
2023-04-30T17:34:01.162Z,45.40
2023-04-30T17:36:28.219Z,46.10
2023-04-30T17:38:55.720Z,45.80
2023-04-30T17:41:22.954Z,45.50
2023-04-30T17:43:50.413Z,45.60
2023-04-30T17:46:17.145Z,45.90
2023-04-30T17:48:43.945Z,46.00
2023-04-30T17:51:10.752Z,46.00
2023-04-30T17:53:37.701Z,46.00
2023-04-30T17:56:04.601Z,46.70
2023-04-30T17:58:31.385Z,47.00
2023-04-30T18:00:58.395Z,47.10
2023-04-30T18:03:25.221Z,47.30
2023-04-30T18:05:52.006Z,47.80
2023-04-30T18:08:18.852Z,48.30
2023-04-30T18:10:47.751Z,48.30
2023-04-30T18:13:14.605Z,48.80
2023-04-30T18:15:41.397Z,48.80
2023-04-30T18:18:08.204Z,48.00
2023-04-30T18:20:36.730Z,48.30
2023-04-30T18:23:03.437Z,48.30
2023-04-30T18:25:34.170Z,48.50
2023-04-30T18:28:02.328Z,48.60
2023-04-30T18:30:29.130Z,48.70
2023-04-30T18:33:00.459Z,48.80
2023-04-30T18:35:27.200Z,49.00
2023-04-30T18:37:53.955Z,49.40
2023-04-30T18:40:20.730Z,49.70
2023-04-30T18:42:48.711Z,50.00
2023-04-30T18:45:16.415Z,50.10
2023-04-30T18:47:44.838Z,50.20
2023-04-30T18:50:11.761Z,50.30
2023-04-30T18:52:41.590Z,50.70
2023-04-30T18:55:09.170Z,51.00
2023-04-30T18:57:37.358Z,51.20
2023-04-30T19:00:08.069Z,51.50
2023-04-30T19:02:36.205Z,51.80
2023-04-30T19:05:03.897Z,52.30
2023-04-30T19:07:32.612Z,52.60
2023-04-30T19:09:59.414Z,52.70
2023-04-30T19:12:26.147Z,53.00
2023-04-30T19:14:52.929Z,53.20
2023-04-30T19:17:21.469Z,53.50
2023-04-30T19:19:50.140Z,53.80
2023-04-30T19:22:17.217Z,53.80
2023-04-30T19:24:45.122Z,54.20
2023-04-30T19:27:11.825Z,54.40
2023-04-30T19:29:39.820Z,54.70
2023-04-30T19:32:08.028Z,55.00
2023-04-30T19:34:36.121Z,55.20
2023-04-30T19:37:03.128Z,55.60
2023-04-30T19:39:31.658Z,56.00
2023-04-30T19:42:00.567Z,56.30
2023-04-30T19:44:30.867Z,56.60
2023-04-30T19:46:58.849Z,56.90
2023-04-30T19:49:26.605Z,57.00
2023-04-30T19:51:56.670Z,57.30
2023-04-30T19:54:26.448Z,57.70
2023-04-30T19:56:57.682Z,58.20
2023-04-30T19:59:25.758Z,58.80
2023-04-30T20:01:52.532Z,58.90
2023-04-30T20:04:19.457Z,59.30
2023-04-30T20:06:46.286Z,59.80
2023-04-30T20:09:13.028Z,60.10
2023-04-30T20:11:39.775Z,60.40
2023-04-30T20:14:08.883Z,61.00
2023-04-30T20:16:35.705Z,61.20
2023-04-30T20:19:02.748Z,61.60
2023-04-30T20:21:29.417Z,62.30
2023-04-30T20:23:56.114Z,62.40
2023-04-30T20:26:22.788Z,63.20
2023-04-30T20:28:49.545Z,63.50
2023-04-30T20:31:17.375Z,63.90
2023-04-30T20:33:44.338Z,64.00
2023-04-30T20:36:12.163Z,64.70
2023-04-30T20:38:40.230Z,64.70
2023-04-30T20:41:07.869Z,64.70
2023-04-30T20:43:36.385Z,65.30
2023-04-30T20:46:03.101Z,65.20
2023-04-30T20:48:29.801Z,65.40
2023-04-30T20:50:56.547Z,65.80
2023-04-30T20:53:23.512Z,66.30
2023-04-30T20:55:50.197Z,66.90
2023-04-30T20:58:16.991Z,66.90
2023-04-30T21:00:43.773Z,67.30
2023-04-30T21:03:10.770Z,67.70
2023-04-30T21:05:37.606Z,67.80
2023-04-30T21:08:05.657Z,68.70
2023-04-30T21:10:33.734Z,68.60
2023-04-30T21:13:02.869Z,68.80
2023-04-30T21:15:30.325Z,68.80
2023-04-30T21:17:59.263Z,68.90
2023-04-30T21:20:27.465Z,69.50
2023-04-30T21:22:57.679Z,69.80
2023-04-30T21:25:26.784Z,70.10
2023-04-30T21:27:53.540Z,70.20
2023-04-30T21:30:22.354Z,70.30
2023-04-30T21:32:51.101Z,70.90
2023-04-30T21:35:17.938Z,71.60
2023-04-30T21:37:44.601Z,71.90
2023-04-30T21:40:11.526Z,72.30
2023-04-30T21:42:38.275Z,73.00
2023-04-30T21:45:05.342Z,73.20
2023-04-30T21:47:32.599Z,72.60
2023-04-30T21:49:59.487Z,73.10
2023-04-30T21:52:26.507Z,73.50
2023-04-30T21:54:53.205Z,73.90
2023-04-30T21:57:20.014Z,74.40
2023-04-30T21:59:46.715Z,74.70
2023-04-30T22:04:47.198Z,76.20
2023-04-30T22:07:13.940Z,76.40
2023-04-30T22:09:40.617Z,76.80
2023-04-30T22:12:07.326Z,77.80
2023-04-30T22:14:34.096Z,78.30
2023-04-30T22:17:00.763Z,79.40
2023-04-30T22:19:27.496Z,79.80
2023-04-30T22:21:54.143Z,79.80
2023-04-30T22:24:20.837Z,80.10
2023-04-30T22:26:48.823Z,80.80
2023-04-30T22:29:15.654Z,81.40
2023-04-30T22:31:43.493Z,82.00
2023-04-30T22:34:11.671Z,82.90
2023-04-30T22:36:40.358Z,83.10
2023-04-30T22:39:07.336Z,83.40
2023-04-30T22:41:35.977Z,83.80
2023-04-30T22:44:03.875Z,84.10
2023-04-30T22:46:31.158Z,84.70
2023-04-30T22:49:00.241Z,85.00
2023-04-30T22:51:31.573Z,85.60
2023-04-30T22:54:01.551Z,86.20
2023-04-30T22:56:30.516Z,87.40
2023-04-30T22:58:57.257Z,87.50
2023-04-30T23:01:24.190Z,87.90
2023-04-30T23:03:51.111Z,88.30
2023-04-30T23:06:17.868Z,88.40
2023-04-30T23:08:44.674Z,89.40
2023-04-30T23:11:11.731Z,90.10
2023-04-30T23:13:38.763Z,90.50
2023-04-30T23:16:07.400Z,90.50
2023-04-30T23:18:34.745Z,90.80
2023-04-30T23:21:03.541Z,91.00
2023-04-30T23:23:30.450Z,91.60
2023-04-30T23:25:57.242Z,92.10
2023-04-30T23:28:26.831Z,91.90
2023-04-30T23:30:56.795Z,92.20
2023-04-30T23:33:23.708Z,92.70
2023-04-30T23:35:52.688Z,92.80
2023-04-30T23:38:20.138Z,93.30
2023-04-30T23:40:47.097Z,93.90
2023-04-30T23:43:14.031Z,93.70
2023-04-30T23:45:43.440Z,94.10
2023-04-30T23:48:10.197Z,94.20
2023-04-30T23:50:38.248Z,94.00
2023-04-30T23:53:06.588Z,94.30
2023-04-30T23:55:34.773Z,94.60
2023-04-30T23:58:01.684Z,94.90
